Time;durP1;ratioP1;P1;durP2;ratioP2;P2;SDS_P1;SDS_P2;PMS_P1;PMS_P2;Temp;Humidity;BMP_temperature;BMP_pressure;BME280_temperature;BME280_humidity;BME280_pressure;Samples;Min_cycle;Max_cycle;Signal;HPM_P1;HPM_P2
2022/01/06 00:01:45;;;;;;;22.03;6.27;;;5.20;99.90;;;;;;4934057;29;20044;-89
2022/01/06 00:04:11;;;;;;;24.30;7.03;;;5.20;99.90;;;;;;4933968;29;20469;-88
2022/01/06 00:06:40;;;;;;;29.20;7.20;;;5.20;99.90;;;;;;4934007;29;20565;-88
2022/01/06 00:09:07;;;;;;;25.33;5.45;;;5.20;99.90;;;;;;4933482;29;20039;-88
2022/01/06 00:11:33;;;;;;;21.57;5.50;;;5.30;99.90;;;;;;4934899;29;20046;-89
2022/01/06 00:14:05;;;;;;;15.40;4.20;;;5.30;99.90;;;;;;4934171;29;20522;-89
2022/01/06 00:16:59;;;;;;;15.30;4.23;;;5.30;99.90;;;;;;4934295;29;20028;-89
2022/01/06 00:24:53;;;;;;;16.53;3.93;;;5.20;99.90;;;;;;4933542;29;20078;-89
2022/01/06 00:27:19;;;;;;;19.47;4.33;;;5.20;99.90;;;;;;4902009;29;20044;-89
2022/01/06 00:29:45;;;;;;;17.77;3.73;;;5.20;99.90;;;;;;4933330;29;20039;-89
2022/01/06 00:32:10;;;;;;;15.40;4.23;;;5.20;99.90;;;;;;4935611;29;20090;-89
2022/01/06 00:34:37;;;;;;;21.07;3.90;;;5.20;99.90;;;;;;4937714;29;20437;-89
2022/01/06 00:37:03;;;;;;;18.47;4.30;;;5.10;99.90;;;;;;4937613;29;20024;-88
2022/01/06 00:39:29;;;;;;;16.23;4.03;;;5.20;99.90;;;;;;4937185;29;20395;-89
2022/01/06 00:41:56;;;;;;;21.13;4.17;;;5.10;99.90;;;;;;4937216;29;20040;-89
2022/01/06 00:44:23;;;;;;;17.03;4.53;;;5.10;99.90;;;;;;4937447;29;20406;-89
2022/01/06 00:46:49;;;;;;;17.50;4.17;;;5.10;99.90;;;;;;4937284;29;20410;-89
2022/01/06 00:49:17;;;;;;;15.20;4.10;;;5.10;99.90;;;;;;4937289;29;20042;-89
2022/01/06 00:51:44;;;;;;;21.90;4.37;;;5.00;99.90;;;;;;4921323;29;20574;-89
2022/01/06 00:54:10;;;;;;;21.80;4.63;;;5.00;99.90;;;;;;4905644;29;20067;-89
2022/01/06 00:56:36;;;;;;;21.37;4.00;;;5.00;99.90;;;;;;4937221;29;20032;-88
2022/01/06 00:59:02;;;;;;;18.30;3.17;;;5.10;99.90;;;;;;4936796;29;20032;-89
2022/01/06 01:01:28;;;;;;;25.17;4.13;;;5.00;99.90;;;;;;4921175;29;20031;-89
2022/01/06 01:03:54;;;;;;;16.23;3.97;;;5.00;99.90;;;;;;4937028;29;20131;-89
2022/01/06 01:06:20;;;;;;;16.43;4.13;;;5.00;99.90;;;;;;4937359;29;20126;-89
2022/01/06 01:08:46;;;;;;;19.93;3.50;;;5.00;99.90;;;;;;4936191;29;20036;-89
2022/01/06 01:11:12;;;;;;;15.73;3.43;;;5.00;99.90;;;;;;4936720;29;20114;-89
2022/01/06 01:13:54;;;;;;;14.47;3.50;;;4.90;99.90;;;;;;4936928;29;20127;-88
2022/01/06 01:16:25;;;;;;;13.60;3.67;;;4.90;99.90;;;;;;4921030;29;20027;-89
2022/01/06 01:18:51;;;;;;;18.27;3.10;;;4.90;99.90;;;;;;4936401;29;20442;-88
2022/01/06 01:21:19;;;;;;;17.80;3.93;;;4.90;99.90;;;;;;4936586;29;20067;-91
2022/01/06 01:23:45;;;;;;;19.30;3.60;;;4.90;99.90;;;;;;4920728;29;20031;-91
2022/01/06 01:26:11;;;;;;;19.37;3.10;;;4.90;99.90;;;;;;4920752;29;20075;-91
2022/01/06 01:28:44;;;;;;;16.27;3.23;;;4.80;99.90;;;;;;4936137;29;20038;-91
2022/01/06 01:33:49;;;;;;;15.35;3.03;;;4.80;99.90;;;;;;4936505;29;20032;-91
2022/01/06 01:36:15;;;;;;;15.20;3.30;;;4.80;99.90;;;;;;4936358;29;20086;-91
2022/01/06 01:38:42;;;;;;;21.73;3.87;;;4.80;99.90;;;;;;4937067;29;20083;-91
2022/01/06 01:41:09;;;;;;;20.77;4.40;;;4.80;99.90;;;;;;4936481;29;20032;-91
2022/01/06 01:43:35;;;;;;;24.63;5.53;;;4.80;99.90;;;;;;4936041;29;20032;-91
2022/01/06 01:46:09;;;;;;;26.43;5.87;;;4.70;99.90;;;;;;4920544;29;20032;-91
2022/01/06 01:48:38;;;;;;;26.17;4.70;;;4.80;99.90;;;;;;4935846;29;20032;-92
2022/01/06 01:51:04;;;;;;;26.17;4.95;;;4.80;99.90;;;;;;4936023;29;20498;-90
2022/01/06 01:53:30;;;;;;;22.57;3.83;;;4.80;99.90;;;;;;4936440;29;20114;-91
2022/01/06 01:55:56;;;;;;;27.23;3.93;;;4.80;99.90;;;;;;4904534;29;20036;-91
2022/01/06 01:58:22;;;;;;;20.73;3.63;;;4.70;99.90;;;;;;4935654;29;20393;-91
2022/01/06 02:00:48;;;;;;;23.03;3.80;;;4.70;99.90;;;;;;4935811;29;20039;-91
2022/01/06 02:03:14;;;;;;;16.90;3.13;;;4.70;99.90;;;;;;4935929;29;20042;-91
2022/01/06 02:05:40;;;;;;;16.33;3.53;;;4.70;99.90;;;;;;4935848;29;20031;-90
2022/01/06 02:08:06;;;;;;;19.70;4.07;;;4.70;99.90;;;;;;4935379;29;20058;-92
2022/01/06 02:10:32;;;;;;;11.90;3.57;;;4.70;99.90;;;;;;4935915;29;20510;-91
2022/01/06 02:13:00;;;;;;;17.83;3.00;;;4.70;99.90;;;;;;4936768;29;20126;-91
2022/01/06 02:15:27;;;;;;;20.70;3.63;;;4.70;99.90;;;;;;4935936;29;20038;-91
2022/01/06 02:17:53;;;;;;;17.57;3.60;;;4.70;99.90;;;;;;4935147;29;20067;-91
2022/01/06 02:20:21;;;;;;;18.57;3.87;;;4.60;99.90;;;;;;4935154;29;20028;-91
2022/01/06 02:22:48;;;;;;;19.73;2.80;;;4.70;99.90;;;;;;4935311;29;20032;-90
2022/01/06 02:25:18;;;;;;;18.80;3.27;;;4.70;99.90;;;;;;4936743;29;20430;-91
2022/01/06 02:27:50;;;;;;;13.67;2.63;;;4.60;99.90;;;;;;4934964;29;20509;-91
2022/01/06 02:30:17;;;;;;;19.60;3.23;;;4.70;99.90;;;;;;4935556;29;20070;-90
2022/01/06 02:32:44;;;;;;;16.47;2.87;;;4.70;99.90;;;;;;4934991;29;20039;-91
2022/01/06 02:35:13;;;;;;;18.23;3.10;;;4.60;99.90;;;;;;4935389;29;20126;-90
2022/01/06 02:37:39;;;;;;;17.45;3.45;;;4.60;99.90;;;;;;4934826;29;20030;-90
2022/01/06 02:40:15;;;;;;;16.17;2.87;;;4.70;99.90;;;;;;4935391;29;20427;-90
2022/01/06 02:42:45;;;;;;;19.60;3.60;;;4.70;99.90;;;;;;4934999;29;20122;-91
2022/01/06 02:45:12;;;;;;;19.65;3.15;;;4.60;99.90;;;;;;4935323;29;20178;-91
2022/01/06 02:47:38;;;;;;;14.90;2.67;;;4.70;99.90;;;;;;4934711;29;20050;-90
2022/01/06 02:50:06;;;;;;;18.87;3.53;;;4.60;99.90;;;;;;4919344;29;20407;-91
2022/01/06 02:52:32;;;;;;;16.43;2.80;;;4.60;99.90;;;;;;4934964;29;20028;-91
2022/01/06 02:54:58;;;;;;;14.60;2.47;;;4.60;99.90;;;;;;4934160;29;20032;-91
2022/01/06 02:57:24;;;;;;;18.43;2.93;;;4.60;99.90;;;;;;4934902;29;20475;-90
2022/01/06 02:59:49;;;;;;;15.83;3.10;;;4.70;99.90;;;;;;4935636;29;20126;-90
2022/01/06 03:02:15;;;;;;;22.87;3.43;;;4.70;99.90;;;;;;4934755;29;20570;-91
2022/01/06 03:04:41;;;;;;;20.70;3.80;;;4.70;99.90;;;;;;4934958;29;20035;-91
2022/01/06 03:07:08;;;;;;;24.87;3.20;;;4.70;99.90;;;;;;4903206;29;20031;-91
2022/01/06 03:09:42;;;;;;;19.17;3.00;;;4.70;99.90;;;;;;4934318;29;20091;-90
2022/01/06 03:12:19;;;;;;;21.73;3.50;;;4.70;99.90;;;;;;4934702;29;20035;-91
2022/01/06 03:14:45;;;;;;;20.37;3.60;;;4.80;99.90;;;;;;4934993;29;20039;-91
2022/01/06 03:17:10;;;;;;;20.10;3.27;;;4.80;99.90;;;;;;4934896;29;20035;-91
2022/01/06 03:19:36;;;;;;;17.23;2.53;;;4.80;99.90;;;;;;4934517;29;20071;-91
2022/01/06 03:22:02;;;;;;;17.23;2.90;;;4.80;99.90;;;;;;4935308;29;20074;-91
2022/01/06 03:24:28;;;;;;;13.83;2.67;;;4.80;99.90;;;;;;4934542;29;20046;-90
2022/01/06 03:26:54;;;;;;;15.53;2.80;;;4.80;99.90;;;;;;4934345;29;20035;-91
2022/01/06 03:29:19;;;;;;;12.57;2.67;;;4.80;99.90;;;;;;4934027;29;20102;-91
2022/01/06 03:31:45;;;;;;;14.23;3.13;;;4.80;99.90;;;;;;4934088;29;20409;-90
2022/01/06 03:34:12;;;;;;;14.40;2.80;;;4.70;99.90;;;;;;4934438;29;20051;-91
2022/01/06 03:36:38;;;;;;;14.53;2.43;;;4.70;99.90;;;;;;4934467;29;20083;-91
2022/01/06 03:39:04;;;;;;;16.03;2.90;;;4.70;99.90;;;;;;4933969;29;20043;-91
2022/01/06 03:41:30;;;;;;;20.13;2.93;;;4.70;99.90;;;;;;4934110;29;20032;-92
2022/01/06 03:43:55;;;;;;;15.23;2.73;;;4.70;99.90;;;;;;4918442;29;20046;-91
2022/01/06 03:46:21;;;;;;;18.63;2.90;;;4.70;99.90;;;;;;4935453;29;20039;-91
2022/01/06 03:48:47;;;;;;;16.10;2.73;;;4.70;99.90;;;;;;4933548;29;20410;-91
2022/01/06 03:51:13;;;;;;;13.37;2.37;;;4.70;99.90;;;;;;4933751;29;20513;-91
2022/01/06 03:53:39;;;;;;;16.93;2.70;;;4.70;99.90;;;;;;4934181;29;20032;-91
2022/01/06 03:56:05;;;;;;;16.40;3.10;;;4.70;99.90;;;;;;4933912;29;20027;-91
2022/01/06 03:58:30;;;;;;;14.87;2.40;;;4.70;99.90;;;;;;4933606;29;20063;-90
2022/01/06 04:00:56;;;;;;;12.83;2.40;;;4.80;99.90;;;;;;4933756;29;20422;-90
2022/01/06 04:03:22;;;;;;;12.70;2.50;;;4.80;99.90;;;;;;4935304;29;20483;-91
2022/01/06 04:05:48;;;;;;;17.83;2.50;;;4.70;99.90;;;;;;4933530;29;20070;-90
2022/01/06 04:08:13;;;;;;;19.87;2.80;;;4.70;99.90;;;;;;4933394;29;20039;-90
2022/01/06 04:10:40;;;;;;;12.23;2.77;;;4.70;99.90;;;;;;4933637;29;20036;-91
2022/01/06 04:13:06;;;;;;;14.53;2.80;;;4.70;99.90;;;;;;4933873;29;20040;-90
2022/01/06 04:15:32;;;;;;;12.53;2.37;;;4.70;99.90;;;;;;4935076;29;20032;-91
2022/01/06 04:17:57;;;;;;;19.27;3.00;;;4.70;99.90;;;;;;4934573;29;20034;-91
2022/01/06 04:20:23;;;;;;;16.40;2.53;;;4.70;99.90;;;;;;4933644;29;20036;-91
2022/01/06 04:22:49;;;;;;;18.60;2.90;;;4.70;99.90;;;;;;4933698;29;20040;-91
2022/01/06 04:25:15;;;;;;;17.37;3.40;;;4.70;99.90;;;;;;4933588;29;20071;-90
2022/01/06 04:27:41;;;;;;;11.97;3.00;;;4.70;99.90;;;;;;4933019;29;20126;-91
2022/01/06 04:30:09;;;;;;;18.77;3.60;;;4.60;99.90;;;;;;4933570;29;20031;-91
2022/01/06 04:32:35;;;;;;;15.73;3.13;;;4.60;99.90;;;;;;4933441;29;20032;-90
2022/01/06 04:35:01;;;;;;;24.00;4.50;;;4.60;99.90;;;;;;4933982;29;20042;-91
2022/01/06 04:37:28;;;;;;;17.43;2.80;;;4.60;99.90;;;;;;4933604;29;20027;-90
2022/01/06 04:39:57;;;;;;;17.07;2.80;;;4.60;99.90;;;;;;4933470;29;20036;-91
2022/01/06 04:42:22;;;;;;;16.70;3.10;;;4.70;99.90;;;;;;4917734;29;20036;-90
2022/01/06 04:44:48;;;;;;;15.70;2.63;;;4.60;99.90;;;;;;4933558;29;20042;-90
2022/01/06 04:47:14;;;;;;;18.30;3.30;;;4.60;99.90;;;;;;4933609;29;20038;-90
2022/01/06 04:49:40;;;;;;;17.87;3.10;;;4.60;99.90;;;;;;4932802;29;20114;-91
2022/01/06 04:52:06;;;;;;;19.27;2.87;;;4.50;99.90;;;;;;4933654;29;20583;-91
2022/01/06 04:54:32;;;;;;;16.37;2.63;;;4.50;99.90;;;;;;4935046;29;20071;-91
2022/01/06 04:56:58;;;;;;;13.87;2.50;;;4.50;99.90;;;;;;4933700;29;20064;-90
2022/01/06 04:59:23;;;;;;;17.27;3.23;;;4.50;99.90;;;;;;4934943;29;20074;-90
2022/01/06 05:01:50;;;;;;;15.93;2.70;;;4.50;99.90;;;;;;4934561;29;20036;-89
2022/01/06 05:04:15;;;;;;;15.80;3.07;;;4.50;99.90;;;;;;4937997;29;20391;-90
2022/01/06 05:06:42;;;;;;;13.03;2.50;;;4.50;99.90;;;;;;4933530;29;20103;-91
2022/01/06 05:09:08;;;;;;;22.23;2.93;;;4.50;99.90;;;;;;4933021;29;20494;-91
2022/01/06 05:11:33;;;;;;;17.40;2.93;;;4.40;99.90;;;;;;4933316;29;20474;-91
2022/01/06 05:13:59;;;;;;;15.83;2.63;;;4.50;99.90;;;;;;4933530;29;20028;-91
2022/01/06 05:16:25;;;;;;;16.20;2.57;;;4.40;99.90;;;;;;4933556;29;20031;-91
2022/01/06 05:18:51;;;;;;;14.83;2.77;;;4.40;99.90;;;;;;4935645;29;20060;-90
2022/01/06 05:21:16;;;;;;;13.50;2.40;;;4.30;99.90;;;;;;4936880;29;20027;-91
2022/01/06 05:23:43;;;;;;;14.53;2.37;;;4.30;99.90;;;;;;4938296;29;20034;-91
2022/01/06 05:26:12;;;;;;;15.70;2.73;;;4.30;99.90;;;;;;4937552;29;20032;-90
2022/01/06 05:28:38;;;;;;;19.33;2.38;;;4.30;99.90;;;;;;4970236;23;20131;-89
2022/01/06 05:31:04;;;;;;;12.97;2.57;;;4.30;99.90;;;;;;4936822;29;20454;-90
2022/01/06 05:33:30;;;;;;;9.73;2.10;;;4.30;99.90;;;;;;4937542;29;20103;-89
2022/01/06 05:35:56;;;;;;;13.07;2.57;;;4.30;99.90;;;;;;4937192;29;20028;-89
2022/01/06 05:38:22;;;;;;;12.87;2.87;;;4.30;99.90;;;;;;4933665;29;20055;-90
2022/01/06 05:40:51;;;;;;;14.47;2.20;;;4.30;99.90;;;;;;4934346;29;20036;-89
2022/01/06 05:43:19;;;;;;;13.70;2.80;;;4.30;99.90;;;;;;4933339;29;20047;-89
2022/01/06 05:45:45;;;;;;;13.97;2.50;;;4.30;99.90;;;;;;4933790;29;20032;-89
2022/01/06 05:48:11;;;;;;;14.80;3.07;;;4.30;99.90;;;;;;4933455;29;20150;-89
2022/01/06 05:50:36;;;;;;;15.97;2.80;;;4.20;99.90;;;;;;4934141;29;20493;-89
2022/01/06 05:53:02;;;;;;;19.93;2.63;;;4.20;99.90;;;;;;4918742;29;20040;-88
2022/01/06 05:55:28;;;;;;;11.87;2.30;;;4.20;99.90;;;;;;4933212;29;20034;-90
2022/01/06 05:57:55;;;;;;;13.53;2.50;;;4.20;99.90;;;;;;4932456;29;20554;-90
2022/01/06 06:00:20;;;;;;;17.43;2.53;;;4.20;99.90;;;;;;4932664;29;20032;-90
2022/01/06 06:02:48;;;;;;;14.00;2.63;;;4.20;99.90;;;;;;4932452;29;20087;-90
2022/01/06 06:05:14;;;;;;;16.90;2.63;;;4.20;99.90;;;;;;4932783;29;20447;-90
2022/01/06 06:07:39;;;;;;;18.23;2.50;;;4.20;99.90;;;;;;4932375;29;20032;-89
2022/01/06 06:10:06;;;;;;;19.80;3.37;;;4.20;99.90;;;;;;4932757;29;20050;-90
2022/01/06 06:12:31;;;;;;;17.17;2.80;;;4.20;99.90;;;;;;4916681;29;20078;-89
2022/01/06 06:14:57;;;;;;;21.33;3.40;;;4.20;99.90;;;;;;4932555;29;20064;-90
2022/01/06 06:17:23;;;;;;;15.80;2.87;;;4.10;99.90;;;;;;4932629;29;20446;-89
2022/01/06 06:19:48;;;;;;;19.30;2.80;;;4.10;99.90;;;;;;4932559;29;20044;-90
2022/01/06 06:22:14;;;;;;;13.80;2.90;;;4.10;99.90;;;;;;4932555;29;20046;-90
2022/01/06 06:24:40;;;;;;;16.70;3.47;;;4.10;99.90;;;;;;4932890;29;20036;-90
2022/01/06 06:27:06;;;;;;;22.33;3.33;;;4.10;99.90;;;;;;4932350;29;20469;-90
2022/01/06 06:29:32;;;;;;;19.53;3.50;;;4.10;99.90;;;;;;4930838;29;20406;-90
2022/01/06 06:31:58;;;;;;;17.70;3.37;;;4.10;99.90;;;;;;4932289;29;20083;-90
2022/01/06 06:34:23;;;;;;;19.23;3.60;;;4.10;99.90;;;;;;4932763;29;20084;-90
2022/01/06 06:36:52;;;;;;;24.77;4.33;;;4.10;99.90;;;;;;4932128;29;20032;-89
2022/01/06 06:39:18;;;;;;;17.15;3.13;;;4.00;99.90;;;;;;4916324;29;20060;-88
2022/01/06 06:41:44;;;;;;;17.63;4.20;;;4.00;99.90;;;;;;4931988;29;20403;-88
2022/01/06 06:44:09;;;;;;;21.03;4.33;;;4.00;99.90;;;;;;4932047;29;20039;-89
2022/01/06 06:46:35;;;;;;;14.20;3.63;;;3.90;99.90;;;;;;4931902;29;20487;-89
2022/01/06 06:49:01;;;;;;;15.10;3.17;;;3.80;99.90;;;;;;4915986;29;20036;-89
2022/01/06 06:51:26;;;;;;;15.53;3.53;;;3.80;99.90;;;;;;4931653;29;20032;-89
2022/01/06 06:53:52;;;;;;;15.53;3.50;;;3.70;99.90;;;;;;4917233;29;20032;-89
2022/01/06 06:56:18;;;;;;;14.53;3.03;;;3.70;99.90;;;;;;4931834;29;20119;-89
2022/01/06 06:58:44;;;;;;;19.90;3.93;;;3.70;99.90;;;;;;4931743;29;20040;-89
2022/01/06 07:01:09;;;;;;;15.03;3.33;;;3.60;99.90;;;;;;4915790;29;20134;-89
2022/01/06 07:03:35;;;;;;;18.50;3.50;;;3.50;99.90;;;;;;4931733;29;20043;-89
2022/01/06 07:06:01;;;;;;;14.00;3.47;;;3.50;99.90;;;;;;4932185;29;20402;-89
2022/01/06 07:08:26;;;;;;;12.80;2.77;;;3.50;99.90;;;;;;4931979;29;20498;-89
2022/01/06 07:10:53;;;;;;;18.03;3.43;;;3.50;99.90;;;;;;4932118;29;20081;-88
2022/01/06 07:13:19;;;;;;;16.40;2.93;;;3.40;99.90;;;;;;4931984;29;20503;-88
2022/01/06 07:15:46;;;;;;;17.73;3.10;;;3.50;99.90;;;;;;4916483;29;20054;-89
2022/01/06 07:18:12;;;;;;;13.63;3.17;;;3.40;99.90;;;;;;4931847;29;20662;-88
2022/01/06 07:20:38;;;;;;;25.23;3.83;;;3.30;99.90;;;;;;4931910;29;20115;-89
2022/01/06 07:23:04;;;;;;;11.67;3.40;;;3.30;99.90;;;;;;4931904;29;20062;-89
2022/01/06 07:25:31;;;;;;;15.60;3.50;;;3.30;99.90;;;;;;4931741;29;20087;-89
2022/01/06 07:27:56;;;;;;;16.70;3.60;;;3.40;99.90;;;;;;4936712;29;20067;-89
2022/01/06 07:30:23;;;;;;;18.57;3.47;;;3.40;99.90;;;;;;4931605;29;20036;-89
2022/01/06 07:32:51;;;;;;;25.00;7.30;;;3.30;99.90;;;;;;4931294;29;20402;-88
2022/01/06 07:35:21;;;;;;;17.30;3.63;;;3.40;99.90;;;;;;4931360;29;20078;-89
2022/01/06 07:37:48;;;;;;;18.13;3.53;;;3.40;99.90;;;;;;4916946;29;20028;-89
2022/01/06 07:40:17;;;;;;;20.88;3.88;;;3.40;99.90;;;;;;4930597;29;20424;-88
2022/01/06 07:42:43;;;;;;;15.10;3.10;;;3.40;99.90;;;;;;4915449;29;20096;-89
2022/01/06 07:45:10;;;;;;;14.57;3.30;;;3.40;99.90;;;;;;4931162;29;20443;-88
2022/01/06 07:47:43;;;;;;;16.77;3.13;;;3.40;99.90;;;;;;4931158;29;20063;-89
2022/01/06 07:50:09;;;;;;;14.33;3.07;;;3.40;99.90;;;;;;4931340;29;20172;-89
2022/01/06 07:52:35;;;;;;;18.77;3.43;;;3.50;99.90;;;;;;4931066;29;20036;-89
2022/01/06 07:55:01;;;;;;;20.47;3.60;;;3.50;99.90;;;;;;4916682;29;20107;-88
2022/01/06 07:57:26;;;;;;;20.00;3.43;;;3.50;99.90;;;;;;4931362;29;20040;-89
2022/01/06 07:59:52;;;;;;;12.63;3.33;;;3.50;99.90;;;;;;4931238;29;20032;-88
2022/01/06 08:02:18;;;;;;;19.37;3.33;;;3.50;99.90;;;;;;4930836;29;20083;-87
2022/01/06 08:04:44;;;;;;;17.50;3.70;;;3.60;99.90;;;;;;4915379;29;20032;-89
2022/01/06 08:07:09;;;;;;;14.60;3.27;;;3.60;99.90;;;;;;4916424;29;20040;-89
2022/01/06 08:09:35;;;;;;;16.17;3.83;;;3.60;99.90;;;;;;4930861;29;20043;-89
2022/01/06 08:12:03;;;;;;;17.73;3.67;;;3.60;99.90;;;;;;4915209;29;20040;-88
2022/01/06 08:14:29;;;;;;;16.40;3.77;;;3.70;99.90;;;;;;4930827;29;20039;-89
2022/01/06 08:16:55;;;;;;;12.53;3.20;;;3.70;99.90;;;;;;4915176;29;20032;-89
2022/01/06 08:19:21;;;;;;;17.83;3.70;;;3.80;99.90;;;;;;4914981;29;20106;-88
2022/01/06 08:21:46;;;;;;;13.07;4.80;;;3.80;99.90;;;;;;4914931;29;20036;-89
2022/01/06 08:24:12;;;;;;;20.67;5.43;;;3.90;99.90;;;;;;4930769;29;20092;-89
2022/01/06 08:26:38;;;;;;;20.27;4.60;;;4.00;99.90;;;;;;4931363;29;20040;-89
2022/01/06 08:29:04;;;;;;;13.73;4.10;;;4.00;99.90;;;;;;4931080;29;20044;-89
2022/01/06 08:31:29;;;;;;;17.83;3.93;;;4.00;99.90;;;;;;4930677;29;20032;-89
2022/01/06 08:33:55;;;;;;;16.73;4.07;;;4.10;99.90;;;;;;4930928;29;20447;-89
2022/01/06 08:36:21;;;;;;;14.23;3.80;;;4.00;99.90;;;;;;4915432;29;20072;-89
2022/01/06 08:38:46;;;;;;;20.33;3.90;;;4.00;99.90;;;;;;4930937;29;20048;-89
2022/01/06 08:41:12;;;;;;;17.87;4.30;;;4.10;99.90;;;;;;4930567;29;20117;-88
2022/01/06 08:43:38;;;;;;;20.97;4.90;;;4.10;99.90;;;;;;4930655;29;20039;-89
2022/01/06 08:46:04;;;;;;;17.10;4.47;;;4.10;99.90;;;;;;4930696;29;20043;-89
2022/01/06 08:48:31;;;;;;;14.13;4.10;;;4.00;99.90;;;;;;4930651;29;20123;-89
2022/01/06 08:50:57;;;;;;;16.13;3.60;;;4.10;99.90;;;;;;4914773;29;20040;-89
2022/01/06 08:53:23;;;;;;;16.00;3.50;;;4.00;99.90;;;;;;4917034;29;20043;-89
2022/01/06 08:55:51;;;;;;;13.07;3.50;;;4.00;99.90;;;;;;4919580;29;20032;-89
2022/01/06 08:58:17;;;;;;;19.90;4.00;;;4.00;99.90;;;;;;4918145;29;20035;-88
2022/01/06 09:00:44;;;;;;;20.60;4.43;;;4.00;99.90;;;;;;4933973;29;20103;-89
2022/01/06 09:03:10;;;;;;;18.03;3.90;;;4.10;99.90;;;;;;4918291;29;20582;-89
2022/01/06 09:05:37;;;;;;;23.17;4.33;;;4.10;99.90;;;;;;4918405;29;20126;-88
2022/01/06 09:08:04;;;;;;;21.40;6.60;;;4.00;99.90;;;;;;4934182;29;20031;-89
2022/01/06 09:10:33;;;;;;;30.87;11.13;;;4.00;99.90;;;;;;4933974;29;20475;-88
2022/01/06 09:12:59;;;;;;;33.50;13.33;;;4.00;99.90;;;;;;4933918;29;20039;-88
2022/01/06 09:15:25;;;;;;;27.40;9.43;;;4.00;99.90;;;;;;4933988;29;20028;-88
2022/01/06 09:17:51;;;;;;;20.83;6.40;;;4.00;99.90;;;;;;4934027;29;20087;-89
2022/01/06 09:20:17;;;;;;;16.30;6.20;;;4.00;99.90;;;;;;4934953;29;20024;-89
2022/01/06 09:22:44;;;;;;;20.87;5.40;;;4.10;99.90;;;;;;4917989;29;20111;-89
2022/01/06 09:25:12;;;;;;;17.33;4.97;;;4.10;99.90;;;;;;4934035;29;20036;-88
2022/01/06 09:27:39;;;;;;;20.40;4.87;;;4.20;99.90;;;;;;4933663;29;20051;-89
2022/01/06 09:30:06;;;;;;;19.43;4.70;;;4.20;99.90;;;;;;4933773;29;20040;-89
2022/01/06 09:32:32;;;;;;;20.27;4.70;;;4.20;99.90;;;;;;4933632;29;20031;-89
2022/01/06 09:34:59;;;;;;;18.53;4.93;;;4.20;99.90;;;;;;4933427;29;20079;-89
2022/01/06 09:37:25;;;;;;;17.37;4.93;;;4.20;99.90;;;;;;4933638;29;20059;-88
2022/01/06 09:39:50;;;;;;;17.07;4.23;;;4.20;99.90;;;;;;4933692;29;20562;-88
2022/01/06 09:42:18;;;;;;;24.13;4.47;;;4.30;99.90;;;;;;4917318;29;20040;-90
2022/01/06 09:44:46;;;;;;;18.70;4.20;;;4.40;99.90;;;;;;4933266;29;20060;-89
2022/01/06 09:47:12;;;;;;;11.97;3.80;;;4.40;99.90;;;;;;4933010;29;20032;-89
2022/01/06 09:49:42;;;;;;;17.00;3.63;;;4.50;99.90;;;;;;4933111;29;20032;-88
2022/01/06 09:52:08;;;;;;;26.93;7.30;;;4.50;99.90;;;;;;4933059;29;20040;-89
2022/01/06 09:54:35;;;;;;;30.53;10.17;;;4.40;99.90;;;;;;4933102;29;20448;-89
2022/01/06 09:57:01;;;;;;;33.73;13.40;;;4.40;99.90;;;;;;4918406;29;20032;-89
2022/01/06 09:59:27;;;;;;;33.10;12.30;;;4.50;99.90;;;;;;4932929;29;20028;-88
2022/01/06 10:01:54;;;;;;;22.20;7.23;;;4.50;99.90;;;;;;4918304;29;20051;-89
2022/01/06 10:04:27;;;;;;;21.13;5.33;;;4.50;99.90;;;;;;4932744;29;20487;-88
2022/01/06 10:07:10;;;;;;;18.43;5.10;;;4.60;99.90;;;;;;4933212;29;20084;-89
2022/01/06 10:09:37;;;;;;;17.37;4.77;;;4.50;99.90;;;;;;4932890;29;20123;-88
2022/01/06 10:12:11;;;;;;;15.70;4.03;;;4.60;99.90;;;;;;4932920;29;20483;-89
2022/01/06 10:14:44;;;;;;;16.43;3.93;;;4.60;99.90;;;;;;4932966;29;20027;-89
2022/01/06 10:17:14;;;;;;;16.73;4.40;;;4.60;99.90;;;;;;4933041;29;20036;-89
2022/01/06 10:19:41;;;;;;;15.43;4.22;;;4.60;99.90;;;;;;4933198;29;20024;-89
2022/01/06 10:22:25;;;;;;;18.80;4.53;;;4.60;99.90;;;;;;4932806;29;20448;-89
2022/01/06 10:24:51;;;;;;;14.97;4.43;;;4.60;99.90;;;;;;4932666;29;20119;-90
2022/01/06 10:27:20;;;;;;;20.97;5.00;;;4.70;99.90;;;;;;4932432;29;20563;-89
2022/01/06 10:29:51;;;;;;;20.58;4.82;;;4.70;99.90;;;;;;4931926;29;20031;-90
2022/01/06 10:32:21;;;;;;;13.90;4.97;;;4.70;99.90;;;;;;4932669;29;20056;-90
2022/01/06 10:34:48;;;;;;;;;;;4.80;99.90;;;;;;4932977;29;20028;-89
2022/01/06 10:37:18;;;;;;;18.17;4.40;;;4.80;99.90;;;;;;4932560;29;19962;-89
2022/01/06 10:39:45;;;;;;;20.27;5.40;;;4.80;99.90;;;;;;4932111;29;20410;-90
2022/01/06 10:42:12;;;;;;;19.00;4.20;;;4.80;99.90;;;;;;4933012;29;20032;-89
2022/01/06 10:45:09;;;;;;;15.10;4.50;;;4.80;99.90;;;;;;4932410;29;20056;-89
2022/01/06 10:47:44;;;;;;;20.83;5.27;;;4.90;99.90;;;;;;4899494;29;20044;-90
2022/01/06 10:50:20;;;;;;;19.00;5.40;;;4.90;99.90;;;;;;4932221;29;20065;-89
2022/01/06 10:52:47;;;;;;;18.43;4.97;;;4.90;99.90;;;;;;4932201;29;20040;-90
2022/01/06 10:55:29;;;;;;;20.23;5.63;;;4.80;99.90;;;;;;4932428;29;20032;-90
2022/01/06 10:58:04;;;;;;;21.43;5.63;;;4.90;99.90;;;;;;4915638;29;20079;-89
2022/01/06 11:00:33;;;;;;;15.93;5.20;;;4.90;99.90;;;;;;4932160;29;20032;-90
2022/01/06 11:03:09;;;;;;;14.48;4.95;;;4.90;99.90;;;;;;4932404;29;20143;-90
2022/01/06 11:05:37;;;;;;;20.00;6.47;;;5.00;99.90;;;;;;4931900;29;20398;-90
2022/01/06 11:08:04;;;;;;;14.57;5.03;;;5.00;99.90;;;;;;4931775;29;20046;-90
2022/01/06 11:10:35;;;;;;;19.60;5.97;;;5.00;99.90;;;;;;4932126;29;20043;-89
2022/01/06 11:13:01;;;;;;;18.73;5.23;;;5.00;99.90;;;;;;4932003;29;20347;-89
2022/01/06 11:15:27;;;;;;;19.27;5.27;;;5.00;99.90;;;;;;4931284;29;20123;-89
2022/01/06 11:17:54;;;;;;;18.43;5.57;;;5.00;99.90;;;;;;4931698;29;20032;-89
2022/01/06 11:20:25;;;;;;;16.30;5.50;;;5.00;99.90;;;;;;4932075;29;20032;-89
2022/01/06 11:22:53;;;;;;;16.20;6.00;;;5.10;99.90;;;;;;4931691;29;20068;-89
2022/01/06 11:25:35;;;;;;;16.47;5.13;;;5.10;99.90;;;;;;4931647;29;20028;-89
2022/01/06 11:28:05;;;;;;;18.30;5.87;;;5.00;99.90;;;;;;4916075;29;20035;-89
2022/01/06 11:30:41;;;;;;;14.43;5.25;;;5.00;99.90;;;;;;4931821;29;20036;-89
2022/01/06 11:33:07;;;;;;;23.37;5.33;;;5.10;99.90;;;;;;4931388;29;20174;-89
2022/01/06 11:35:52;;;;;;;23.10;6.00;;;5.10;99.90;;;;;;4931877;29;20082;-90
2022/01/06 11:38:20;;;;;;;17.70;5.43;;;5.10;99.90;;;;;;4931224;29;20051;-89
2022/01/06 11:40:48;;;;;;;26.67;6.10;;;5.10;99.90;;;;;;4931351;29;20040;-89
2022/01/06 11:43:14;;;;;;;16.93;5.20;;;5.10;99.90;;;;;;4931571;29;20043;-89
2022/01/06 11:45:40;;;;;;;16.40;5.73;;;5.10;99.90;;;;;;4931549;29;20095;-89
2022/01/06 11:48:16;;;;;;;19.50;5.70;;;5.10;99.90;;;;;;4932279;29;20130;-89
2022/01/06 11:50:50;;;;;;;19.33;5.60;;;5.10;99.90;;;;;;4945387;28;20036;-89
2022/01/06 11:53:16;;;;;;;20.50;6.10;;;5.10;99.90;;;;;;4924377;29;20043;-89
2022/01/06 11:55:45;;;;;;;19.50;5.83;;;5.20;99.90;;;;;;4939395;29;20036;-89
2022/01/06 11:58:22;;;;;;;19.13;5.43;;;5.20;99.90;;;;;;4940204;29;20395;-89
2022/01/06 12:01:02;;;;;;;15.70;5.47;;;5.10;99.90;;;;;;4939939;29;20032;-90
2022/01/06 12:03:45;;;;;;;13.87;4.73;;;5.10;99.90;;;;;;4940348;29;20036;-89
2022/01/06 12:06:29;;;;;;;24.37;6.73;;;5.10;99.90;;;;;;4924700;29;20057;-90
2022/01/06 12:08:56;;;;;;;20.10;6.83;;;5.10;99.90;;;;;;4939858;29;20044;-90
2022/01/06 12:11:23;;;;;;;16.00;6.43;;;5.20;99.90;;;;;;4939516;29;20131;-90
2022/01/06 12:13:50;;;;;;;23.47;7.60;;;5.20;99.90;;;;;;4939672;29;20095;-89
2022/01/06 12:16:29;;;;;;;23.30;6.70;;;5.30;99.90;;;;;;4940029;29;20083;-90
2022/01/06 12:18:56;;;;;;;24.10;7.03;;;5.30;99.90;;;;;;4939255;29;20040;-90
2022/01/06 12:21:22;;;;;;;21.67;8.40;;;5.30;99.90;;;;;;4939643;29;20024;-90
2022/01/06 12:24:03;;;;;;;20.67;7.83;;;5.40;99.90;;;;;;4940413;29;20036;-90
2022/01/06 12:26:29;;;;;;;22.13;7.77;;;5.50;99.90;;;;;;4941339;29;20056;-90
2022/01/06 12:28:55;;;;;;;18.80;7.47;;;5.40;99.90;;;;;;4942764;29;20099;-90
2022/01/06 12:31:29;;;;;;;26.47;7.23;;;5.50;99.90;;;;;;4941763;29;20016;-88
2022/01/06 12:34:01;;;;;;;22.57;6.90;;;5.50;99.90;;;;;;4943574;29;20044;-90
2022/01/06 12:36:33;;;;;;;22.77;6.97;;;5.50;99.90;;;;;;4943488;29;20039;-90
2022/01/06 12:39:11;;;;;;;20.83;7.20;;;5.50;99.90;;;;;;4943074;29;20332;-89
2022/01/06 12:41:38;;;;;;;22.00;7.13;;;5.50;99.90;;;;;;4944767;29;20159;-90
2022/01/06 12:44:05;;;;;;;18.37;7.30;;;5.50;99.90;;;;;;4944066;29;20041;-90
2022/01/06 12:46:42;;;;;;;21.20;7.90;;;5.40;99.90;;;;;;4944358;29;20028;-89
2022/01/06 12:49:09;;;;;;;22.37;8.10;;;5.40;99.90;;;;;;4945175;29;20072;-90
2022/01/06 12:51:41;;;;;;;21.40;7.97;;;5.50;99.90;;;;;;4947625;28;20123;-89
2022/01/06 12:54:11;;;;;;;23.50;7.40;;;5.50;99.90;;;;;;4947260;29;20016;-90
2022/01/06 12:56:39;;;;;;;25.17;7.95;;;5.50;99.90;;;;;;4946594;29;20028;-90
2022/01/06 12:59:16;;;;;;;24.23;8.30;;;5.50;99.90;;;;;;4944390;29;20055;-90